Terminal Aerodrome Forecast
Issued by NWS Quad Cities IA IL

Home | Current Version | Previous Version | Text Only | Print | Product List | Glossary On
Versions: 1 2 3 4 5 6 7 8 9 10 11 12 13 14 15 16 17 18 19 20 21 22 23 24 25 26 27 28
000
FTUS43 KDVN 230000 AAA
TAFDBQ
TAF AMD
KDBQ 230034Z 2301/2324 18012KT 4SM BR OVC008
      TEMPO 2301/2303 1SM BR OVC002
     FM230300 19010KT 1SM BR OVC002
     FM230900 19011KT 1/2SM -DZ FG VV002
     FM231400 18012KT 3/4SM -DZ BR OVC003
     FM231600 17011KT 1SM -RA BR OVC004=

USA.gov is the U.S. government's official web portal to all federal, state and local government web resources and services.